createdAt,value
2022-12-28T00:02:26.306Z,100900.23
2022-12-28T00:07:32.319Z,100901.61
2022-12-28T00:12:35.592Z,100897.96
2022-12-28T00:17:39.208Z,100902.94
2022-12-28T00:22:42.599Z,100904.80
2022-12-28T00:27:45.882Z,100899.89
2022-12-28T00:32:49.177Z,100896.21
2022-12-28T00:37:53.294Z,100899.04
2022-12-28T00:42:56.627Z,100900.66
2022-12-28T00:47:59.927Z,100896.21
2022-12-28T00:53:03.632Z,100895.57
2022-12-28T00:58:08.145Z,100900.86
2022-12-28T01:03:11.384Z,100901.08
2022-12-28T01:08:14.739Z,100899.71
2022-12-28T01:13:18.008Z,100899.75
2022-12-28T01:18:21.257Z,100891.25
2022-12-28T01:23:24.551Z,100884.51
2022-12-28T01:28:29.594Z,100882.70
2022-12-28T01:33:33.005Z,100879.42
2022-12-28T01:38:36.840Z,100879.48
2022-12-28T01:43:42.381Z,100881.23
2022-12-28T01:49:11.216Z,100880.48
2022-12-28T01:54:15.322Z,100876.85
2022-12-28T01:59:22.658Z,100876.11
2022-12-28T02:04:27.261Z,100868.05
2022-12-28T02:09:38.129Z,100862.50
2022-12-28T02:14:43.519Z,100862.20
2022-12-28T02:19:49.336Z,100862.17
2022-12-28T02:25:14.064Z,100861.54
2022-12-28T02:30:18.408Z,100849.12
2022-12-28T02:35:49.668Z,100844.42
2022-12-28T02:41:06.515Z,100841.50
2022-12-28T02:46:30.705Z,100836.52
2022-12-28T02:52:03.188Z,100827.77
2022-12-28T02:57:28.124Z,100826.90
2022-12-28T03:03:01.903Z,100828.92
2022-12-28T03:08:37.064Z,100826.34
2022-12-28T03:14:09.531Z,100832.58
2022-12-28T03:19:31.502Z,100836.64
2022-12-28T03:24:56.364Z,100833.50
2022-12-28T03:30:24.617Z,100830.55
2022-12-28T03:35:46.330Z,100821.90
2022-12-28T03:40:52.635Z,100816.20
2022-12-28T03:46:20.660Z,100819.37
2022-12-28T03:51:26.026Z,100823.55
2022-12-28T03:56:29.584Z,100819.23
2022-12-28T04:01:32.938Z,100813.23
2022-12-28T04:06:37.658Z,100799.78
2022-12-28T04:11:40.945Z,100802.39
2022-12-28T04:16:44.207Z,100799.27
2022-12-28T04:21:47.457Z,100793.13
2022-12-28T04:26:50.769Z,100796.17
2022-12-28T04:31:54.121Z,100798.92
2022-12-28T04:36:57.365Z,100794.92
2022-12-28T04:42:00.675Z,100788.02
2022-12-28T04:47:04.013Z,100784.55
2022-12-28T04:52:07.363Z,100781.73
2022-12-28T04:57:10.615Z,100781.11
2022-12-28T05:02:13.948Z,100776.08
2022-12-28T05:07:17.298Z,100779.04
2022-12-28T05:12:21.547Z,100781.78
2022-12-28T05:17:24.798Z,100779.58
2022-12-28T05:22:28.492Z,100777.19
2022-12-28T05:27:31.769Z,100774.09
2022-12-28T05:32:35.186Z,100767.93
2022-12-28T05:37:38.624Z,100767.02
2022-12-28T05:42:46.506Z,100756.56
2022-12-28T05:47:55.036Z,100738.80
2022-12-28T05:52:58.823Z,100724.13
2022-12-28T05:58:02.204Z,100721.92
2022-12-28T06:03:05.628Z,100718.32
2022-12-28T06:08:09.117Z,100714.28
2022-12-28T06:13:12.342Z,100725.42
2022-12-28T06:18:15.652Z,100718.61
2022-12-28T06:23:19.103Z,100703.21
2022-12-28T06:28:22.448Z,100691.17
2022-12-28T06:33:26.620Z,100687.18
2022-12-28T06:38:33.002Z,100685.64
2022-12-28T06:43:37.997Z,100678.64
2022-12-28T06:48:43.238Z,100674.20
2022-12-28T06:53:48.065Z,100667.15
2022-12-28T06:58:55.718Z,100660.93
2022-12-28T07:04:05.951Z,100657.29
2022-12-28T07:09:13.862Z,100656.16
2022-12-28T07:14:17.346Z,100649.16
2022-12-28T07:19:20.650Z,100651.92
2022-12-28T07:24:23.903Z,100645.82
2022-12-28T07:29:28.211Z,100647.33
2022-12-28T07:34:31.592Z,100642.48
2022-12-28T07:39:36.167Z,100649.08
2022-12-28T07:44:48.640Z,100652.48
2022-12-28T07:49:52.548Z,100641.66
2022-12-28T07:54:55.844Z,100628.16
2022-12-28T07:59:59.235Z,100612.86
2022-12-28T08:05:02.468Z,100610.64
2022-12-28T08:10:06.312Z,100612.24
2022-12-28T08:15:10.041Z,100616.82
2022-12-28T08:20:13.347Z,100630.41
2022-12-28T08:25:16.629Z,100616.42
2022-12-28T08:30:20.325Z,100606.98
2022-12-28T08:35:23.653Z,100598.55
2022-12-28T08:40:30.232Z,100597.33
2022-12-28T08:45:34.046Z,100597.30
2022-12-28T08:50:37.459Z,100602.83
2022-12-28T08:55:40.721Z,100588.55
2022-12-28T09:00:44.054Z,100574.35
2022-12-28T09:05:50.049Z,100569.15
2022-12-28T09:11:07.400Z,100563.27
2022-12-28T09:16:16.391Z,100557.98
2022-12-28T09:21:21.841Z,100556.00
2022-12-28T09:26:27.928Z,100552.05
2022-12-28T09:31:33.626Z,100550.24
2022-12-28T09:36:40.572Z,100544.08
2022-12-28T09:41:49.878Z,100537.95
2022-12-28T09:47:08.401Z,100536.49
2022-12-28T09:52:14.534Z,100526.34
2022-12-28T09:57:20.873Z,100520.83
2022-12-28T10:02:30.284Z,100514.61
2022-12-28T10:07:33.898Z,100500.25
2022-12-28T10:12:37.356Z,100494.89
2022-12-28T10:17:41.617Z,100485.25
2022-12-28T10:22:50.490Z,100463.02
2022-12-28T10:27:55.461Z,100464.60
2022-12-28T10:33:03.301Z,100459.91
2022-12-28T10:38:21.774Z,100451.56
2022-12-28T10:43:32.829Z,100438.71
2022-12-28T10:48:39.868Z,100426.66
2022-12-28T10:53:46.344Z,100416.02
2022-12-28T10:58:52.646Z,100401.70
2022-12-28T11:03:55.877Z,100380.98
2022-12-28T11:09:04.510Z,100362.46
2022-12-28T11:14:22.955Z,100357.14
2022-12-28T11:19:26.447Z,100340.20
2022-12-28T11:24:33.469Z,100331.77
2022-12-28T11:29:45.276Z,100311.15
2022-12-28T11:34:49.915Z,100299.67
2022-12-28T11:39:54.373Z,100302.29
2022-12-28T11:44:58.354Z,100302.27
2022-12-28T11:50:33.174Z,100295.02
2022-12-28T11:55:49.975Z,100283.13
2022-12-28T12:00:53.348Z,100285.91
2022-12-28T12:05:56.979Z,100279.66
2022-12-28T12:11:28.553Z,100270.39
2022-12-28T12:16:46.418Z,100263.85
2022-12-28T12:22:04.565Z,100262.20
2022-12-28T12:27:40.619Z,100254.63
2022-12-28T12:32:45.487Z,100243.10
2022-12-28T12:38:13.187Z,100231.21
2022-12-28T12:43:16.486Z,100230.22
2022-12-28T12:48:30.537Z,100229.04
2022-12-28T12:53:55.772Z,100224.27
2022-12-28T12:59:18.766Z,100212.23
2022-12-28T13:04:28.679Z,100205.45
2022-12-28T13:09:35.419Z,100206.09
2022-12-28T13:14:38.726Z,100196.94
2022-12-28T13:19:42.066Z,100186.77
2022-12-28T13:24:46.329Z,100182.10
2022-12-28T13:29:54.229Z,100174.58
2022-12-28T13:34:58.342Z,100170.39
2022-12-28T13:40:15.964Z,100174.47
2022-12-28T13:45:20.414Z,100174.48
2022-12-28T13:50:32.746Z,100176.27
2022-12-28T13:55:48.677Z,100174.31
2022-12-28T14:00:55.927Z,100161.94
2022-12-28T14:06:02.231Z,100153.19
2022-12-28T14:11:06.801Z,100152.35
2022-12-28T14:16:10.840Z,100147.48
2022-12-28T14:21:15.348Z,100143.31
2022-12-28T14:26:21.902Z,100138.91
2022-12-28T14:31:30.131Z,100133.10
2022-12-28T14:36:40.008Z,100127.19
2022-12-28T14:41:47.076Z,100121.70
2022-12-28T14:46:54.874Z,100125.06
2022-12-28T14:52:08.702Z,100115.21
2022-12-28T14:57:30.120Z,100114.13
2022-12-28T15:02:39.339Z,100103.05
2022-12-28T15:07:43.322Z,100097.88
2022-12-28T15:12:46.641Z,100094.85
2022-12-28T15:17:50.103Z,100098.17
2022-12-28T15:22:53.626Z,100099.84
2022-12-28T15:27:57.400Z,100096.19
2022-12-28T15:33:02.124Z,100095.83
2022-12-28T15:38:05.904Z,100095.45
2022-12-28T15:43:09.493Z,100089.55
2022-12-28T15:48:12.962Z,100077.94
2022-12-28T15:53:18.375Z,100077.14
2022-12-28T15:58:22.026Z,100075.63
2022-12-28T16:03:25.533Z,100071.25
2022-12-28T16:08:29.906Z,100069.42
2022-12-28T16:13:33.514Z,100065.39
2022-12-28T16:18:37.015Z,100061.77
2022-12-28T16:23:45.617Z,100063.46
2022-12-28T16:28:49.811Z,100059.65
2022-12-28T16:33:55.362Z,100052.56
2022-12-28T16:38:59.233Z,100043.55
2022-12-28T16:44:05.794Z,100036.93
2022-12-28T16:49:11.339Z,100035.64
2022-12-28T16:54:17.373Z,100038.84
2022-12-28T16:59:24.930Z,100038.45
2022-12-28T17:04:31.010Z,100035.10
2022-12-28T17:09:36.184Z,100032.25
2022-12-28T17:14:40.194Z,100028.63
2022-12-28T17:19:44.475Z,100028.61
2022-12-28T17:24:49.000Z,100024.34
2022-12-28T17:29:52.823Z,100024.37
2022-12-28T17:34:57.705Z,100019.90
2022-12-28T17:40:02.223Z,100010.42
2022-12-28T17:45:11.402Z,99998.04
2022-12-28T17:50:15.846Z,99995.26
2022-12-28T17:55:19.601Z,99993.89
2022-12-28T18:00:23.042Z,99994.87
2022-12-28T18:05:32.403Z,99989.20
2022-12-28T18:10:39.101Z,99982.84
2022-12-28T18:15:44.732Z,99980.59
2022-12-28T18:20:59.455Z,99982.98
2022-12-28T18:26:13.558Z,99984.34
2022-12-28T18:31:17.540Z,99984.14
2022-12-28T18:36:21.305Z,99979.95
2022-12-28T18:41:32.029Z,99978.05
2022-12-28T18:46:37.411Z,99969.95
2022-12-28T18:51:41.368Z,99964.71
2022-12-28T18:56:44.872Z,99956.90
2022-12-28T19:02:06.445Z,99955.98
2022-12-28T19:07:11.037Z,99953.71
2022-12-28T19:12:14.355Z,99951.05
2022-12-28T19:17:17.889Z,99949.13
2022-12-28T19:22:21.593Z,99948.19
2022-12-28T19:27:25.473Z,99949.27
2022-12-28T19:37:53.022Z,99954.42
2022-12-28T19:42:56.668Z,99954.05
2022-12-28T19:48:00.821Z,99956.73
2022-12-28T19:53:06.925Z,99957.98
2022-12-28T19:58:10.583Z,99956.27
2022-12-28T20:03:14.191Z,99957.99
2022-12-28T20:08:17.762Z,99955.09
2022-12-28T20:13:21.620Z,99956.86
2022-12-28T20:18:25.251Z,99960.23
2022-12-28T20:23:29.460Z,99952.20
2022-12-28T20:28:33.320Z,99949.73
2022-12-28T20:33:38.275Z,99947.63
2022-12-28T20:38:43.081Z,99951.90
2022-12-28T20:43:49.398Z,99949.08
2022-12-28T20:48:53.260Z,99944.04
2022-12-28T20:53:56.713Z,99946.40
2022-12-28T20:59:00.302Z,99944.80
2022-12-28T21:04:05.007Z,99943.30
2022-12-28T21:09:08.752Z,99947.81
2022-12-28T21:14:14.590Z,99952.55
2022-12-28T21:19:18.177Z,99949.54
2022-12-28T21:24:21.984Z,99950.96
2022-12-28T21:29:26.317Z,99954.84
2022-12-28T21:34:30.508Z,99953.02
2022-12-28T21:39:33.792Z,99945.68
2022-12-28T21:44:37.268Z,99944.73
2022-12-28T21:49:40.694Z,99940.32
2022-12-28T21:54:44.330Z,99930.91
2022-12-28T21:59:48.350Z,99938.34
2022-12-28T22:05:10.331Z,99936.11
2022-12-28T22:10:33.207Z,99934.05
2022-12-28T22:15:51.570Z,99933.23
2022-12-28T22:21:01.444Z,99937.94
2022-12-28T22:26:05.735Z,99939.54
2022-12-28T22:31:09.484Z,99933.38
2022-12-28T22:36:16.173Z,99929.65
2022-12-28T22:41:20.114Z,99921.06
2022-12-28T22:46:24.947Z,99916.32
2022-12-28T22:51:43.370Z,99910.04
2022-12-28T22:56:57.855Z,99903.23
2022-12-28T23:02:20.448Z,99899.20
2022-12-28T23:07:27.798Z,99895.04
2022-12-28T23:12:43.590Z,99891.02
2022-12-28T23:18:30.219Z,99880.58
2022-12-28T23:24:23.340Z,99876.80
2022-12-28T23:29:30.826Z,99876.35
2022-12-28T23:34:50.072Z,99878.21
2022-12-28T23:40:34.549Z,99877.85
2022-12-28T23:46:03.956Z,99864.09
2022-12-28T23:51:13.159Z,99854.77
2022-12-28T23:56:17.067Z,99855.55
